Lemon Grove, CA (91945)

8:03 AM PDT on August 22, 2014 (GMT -0700)
Spring Valley | Change Station
CLOSE
Current Station
Personal Weather Station
Location: Spring Valley, CA
Elevation: 500 ft
Nearby Weather Stations

Elev 500 ft 32.73 °N, 117.00 °W | Updated 18 seconds ago

Clear
Clear
73.0 °F
Feels Like 74 °F
N
0.0
Wind Variable Wind from NW
Gusts 0.0 mph

Today
High -- | Low -- °F
--% Chance of Precip.
Yesterday
High -- | Low -- °F
Precip. -- in
6:16 AM 7:25 PM
Waning Crescent, 8% visible
Pressure 29.98 in
Visibility 9.0 miles
Clouds Clear
Heat Index 74 °F
Dew Point 65 °F
Humidity 75%
Rainfall 0.00 in
Snow Depth Not available.
UV 1 out of 12
Pollen 5.20 out of 12
Ozone Good
PM2.5 Good
Flu Activity Not available.
METAR KSEE 221455Z AUTO 00000KT 9SM CLR 21/17 A2998 RMK AO2

More Conditions Fewer Conditions

Pressure 29.98 in
Visibility 9.0 miles
Clouds Clear
Heat Index 74 °F
Dew Point 65 °F
Humidity 75%
Rainfall 0.00 in
Snow Depth Not available.
UV 1 out of 12
Pollen 5.20 out of 12
Ozone Good
PM2.5 Good
Flu Activity Not available.
METAR KSEE 221455Z AUTO 00000KT 9SM CLR 21/17 A2998 RMK AO2

More Conditions Fewer Conditions

10-Day Weather Forecast

Almanac

Astronomy

Aug. 22, 2014 Rise Set
Actual Time 6:16 AM PDT 7:25 PM PDT
Civil Twilight 5:50 AM PDT 7:50 PM PDT
Nautical Twilight 5:20 AM PDT 8:20 PM PDT
Astronomical Twilight 4:48 AM PDT 8:52 PM PDT
Moon 3:46 AM PDT 5:33 PM PDT
Length of Visible Light 13h 59m
Length of Day
13h 08m
Tomorrow will be 1m 51s shorter.
Waning Crescent, 8% of the Moon is Illuminated
Today
Waning Crescent
Aug 25
New
Sep 2
First Quarter
Sep 8
Full
Sep 15
Last Quarter

Today's Extremes

State Highs State Lows

Community

WunderPhotos

Upload Photos

1,746,185 photos uploaded!

WunderBlogs® & News

Nearby

Air Quality

  Air Quality AQ Index Pollutant
Yesterday Good
PM2.5
Yesterday Good
OZONE
Current Good
PM2.5
Current Good
OZONE
Friday Good
PM2.5
Friday Good
OZONE

Snow Depth

Station Depth Elevation
Leavitt Lake 0 in 9400 ft
Leavitt Meadows 1 in 7200 ft
Sonora Pass 0 in 8800 ft
Summit Meadow 0 in 9122 ft
Monitor Pass 0 in 8350 ft

Earthquake Activity

City Distance Mag. Time & Date
Big Bear City, California 110 miles 3.7 9:55 PM PDT
2014-08-17
Alberto Oviedo Mota, Mexico 109 miles 3.5 3:59 PM PDT
2014-08-17
Alberto Oviedo Mota, Mexico 110 miles 3.2 3:59 PM PDT
2014-08-17
Malibu Beach, California 128 miles 3.4 10:03 AM PDT
2014-08-15
Minimum magnitude displayed is 2.5.

Coastal Water Temperatures

Place Temperature
La Jolla, CA 68.0 °F
San Diego, CA 73.0 °F

Nearby Weather Stations